createdAt,value
2023-03-26T00:00:29.375Z,7.40
2023-03-26T00:03:02.121Z,7.30
2023-03-26T00:05:35.825Z,7.30
2023-03-26T00:08:10.270Z,7.20
2023-03-26T00:10:44.503Z,7.20
2023-03-26T00:13:17.999Z,7.20
2023-03-26T00:16:01.947Z,7.10
2023-03-26T00:18:35.249Z,7.10
2023-03-26T00:21:15.904Z,7.10
2023-03-26T00:23:50.879Z,7.00
2023-03-26T00:26:27.564Z,7.00
2023-03-26T00:29:04.767Z,7.00
2023-03-26T00:31:40.238Z,7.00
2023-03-26T00:34:18.620Z,7.00
2023-03-26T00:36:54.877Z,7.00
2023-03-26T00:39:39.910Z,6.90
2023-03-26T00:42:15.137Z,6.90
2023-03-26T00:44:47.614Z,6.90
2023-03-26T00:47:22.855Z,6.80
2023-03-26T00:49:57.616Z,6.80
2023-03-26T00:52:30.516Z,6.80
2023-03-26T00:55:03.093Z,6.80
2023-03-26T00:57:37.492Z,6.80
2023-03-26T01:00:15.532Z,6.80
2023-03-26T01:02:49.195Z,6.80
2023-03-26T01:05:36.787Z,6.80
2023-03-26T01:08:31.599Z,6.90
2023-03-26T01:11:25.870Z,6.90
2023-03-26T01:14:08.905Z,6.90
2023-03-26T01:16:52.279Z,6.90
2023-03-26T01:19:54.292Z,6.90
2023-03-26T01:22:53.303Z,6.90
2023-03-26T01:25:57.089Z,6.90
2023-03-26T01:28:41.860Z,7.00
2023-03-26T01:31:25.459Z,7.00
2023-03-26T01:34:12.646Z,7.10
2023-03-26T01:37:06.639Z,7.20
2023-03-26T01:40:06.975Z,7.20
2023-03-26T01:43:44.587Z,7.20
2023-03-26T01:46:25.875Z,7.20
2023-03-26T01:48:59.294Z,7.30
2023-03-26T01:51:35.825Z,7.30
2023-03-26T01:54:13.094Z,7.40
2023-03-26T01:56:58.912Z,7.40
2023-03-26T02:00:12.912Z,7.40
2023-03-26T02:03:20.398Z,7.40
2023-03-26T02:06:20.255Z,7.40
2023-03-26T02:09:07.133Z,7.30
2023-03-26T02:11:45.018Z,7.30
2023-03-26T02:14:18.737Z,7.30
2023-03-26T02:16:51.607Z,7.30
2023-03-26T02:19:24.708Z,7.20
2023-03-26T02:22:00.022Z,7.20
2023-03-26T02:24:32.862Z,7.20
2023-03-26T02:27:07.831Z,7.20
2023-03-26T02:29:41.441Z,7.20
2023-03-26T02:32:14.619Z,7.20
2023-03-26T02:34:47.471Z,7.20
2023-03-26T02:37:22.126Z,7.20
2023-03-26T02:40:01.792Z,7.30
2023-03-26T02:42:38.221Z,7.30
2023-03-26T02:45:29.346Z,7.30
2023-03-26T02:48:01.909Z,7.40
2023-03-26T02:50:36.786Z,7.40
2023-03-26T02:53:08.987Z,7.40
2023-03-26T02:55:41.239Z,7.40
2023-03-26T02:58:17.316Z,7.40
2023-03-26T03:00:50.932Z,7.30
2023-03-26T03:03:27.987Z,7.30
2023-03-26T03:06:01.534Z,7.30
2023-03-26T03:08:34.548Z,7.30
2023-03-26T03:11:11.886Z,7.30
2023-03-26T03:13:46.867Z,7.30
2023-03-26T03:16:20.185Z,7.30
2023-03-26T03:18:58.307Z,7.30
2023-03-26T03:21:30.802Z,7.40
2023-03-26T03:24:03.106Z,7.40
2023-03-26T03:26:36.609Z,7.40
2023-03-26T03:29:09.646Z,7.50
2023-03-26T03:31:42.800Z,7.50
2023-03-26T03:34:14.843Z,7.50
2023-03-26T03:36:48.592Z,7.50
2023-03-26T03:39:21.125Z,7.50
2023-03-26T03:41:53.639Z,7.50
2023-03-26T03:44:26.192Z,7.40
2023-03-26T03:46:58.178Z,7.50
2023-03-26T03:49:30.251Z,7.50
2023-03-26T03:52:02.611Z,7.50
2023-03-26T03:54:34.812Z,7.50
2023-03-26T03:57:06.943Z,7.50
2023-03-26T03:59:39.118Z,7.50
2023-03-26T04:02:26.433Z,7.50
2023-03-26T04:05:06.396Z,7.50
2023-03-26T04:07:39.360Z,7.50
2023-03-26T04:10:15.274Z,7.50
2023-03-26T04:12:47.726Z,7.50
2023-03-26T04:15:20.409Z,7.60
2023-03-26T04:17:52.869Z,7.60
2023-03-26T04:20:24.935Z,7.60
2023-03-26T04:22:58.064Z,7.70
2023-03-26T04:25:33.157Z,7.70
2023-03-26T04:28:08.923Z,7.70
2023-03-26T04:30:48.927Z,7.70
2023-03-26T04:33:30.487Z,7.70
2023-03-26T04:36:05.253Z,7.80
2023-03-26T04:38:44.621Z,7.80
2023-03-26T04:41:17.711Z,7.80
2023-03-26T04:43:50.830Z,7.70
2023-03-26T04:46:24.291Z,7.70
2023-03-26T04:48:56.317Z,7.70
2023-03-26T04:51:38.264Z,7.70
2023-03-26T04:54:14.409Z,7.70
2023-03-26T04:57:05.508Z,7.70
2023-03-26T04:59:47.240Z,7.60
2023-03-26T05:02:20.181Z,7.60
2023-03-26T05:04:52.520Z,7.60
2023-03-26T05:07:24.593Z,7.60
2023-03-26T05:09:57.568Z,7.60
2023-03-26T05:12:30.295Z,7.60
2023-03-26T05:15:02.455Z,7.70
2023-03-26T05:17:41.435Z,7.70
2023-03-26T05:20:26.901Z,7.80
2023-03-26T05:23:00.948Z,7.80
2023-03-26T05:25:34.828Z,7.80
2023-03-26T05:28:06.963Z,7.80
2023-03-26T05:30:43.580Z,7.80
2023-03-26T05:33:16.414Z,7.90
2023-03-26T05:36:00.129Z,7.80
2023-03-26T05:38:55.729Z,7.80
2023-03-26T05:41:28.112Z,7.80
2023-03-26T05:44:00.292Z,7.80
2023-03-26T05:46:32.436Z,7.80
2023-03-26T05:49:04.503Z,7.80
2023-03-26T05:51:36.708Z,7.80
2023-03-26T05:54:08.893Z,7.80
2023-03-26T05:56:41.530Z,7.90
2023-03-26T05:59:15.364Z,7.90
2023-03-26T06:01:47.500Z,7.90
2023-03-26T06:04:21.968Z,7.90
2023-03-26T06:06:54.411Z,7.90
2023-03-26T06:09:26.564Z,8.00
2023-03-26T06:11:58.742Z,8.00
2023-03-26T06:14:31.222Z,8.00
2023-03-26T06:17:03.729Z,7.90
2023-03-26T06:19:36.495Z,8.00
2023-03-26T06:22:08.668Z,7.90
2023-03-26T06:24:40.960Z,7.90
2023-03-26T06:27:13.078Z,7.90
2023-03-26T06:29:45.245Z,7.90
2023-03-26T06:32:20.231Z,7.90
2023-03-26T06:34:53.292Z,7.90
2023-03-26T06:37:25.506Z,7.90
2023-03-26T06:39:57.793Z,8.00
2023-03-26T06:43:08.267Z,8.00
2023-03-26T06:45:22.985Z,8.00
2023-03-26T06:47:55.524Z,8.00
2023-03-26T06:50:28.411Z,8.00
2023-03-26T06:53:00.984Z,8.10
2023-03-26T06:55:33.294Z,8.10
2023-03-26T06:58:06.121Z,8.10
2023-03-26T07:00:38.983Z,8.10
2023-03-26T07:03:11.820Z,8.20
2023-03-26T07:05:44.442Z,8.20
2023-03-26T07:08:17.988Z,8.20
2023-03-26T07:10:50.835Z,8.20
2023-03-26T07:13:23.119Z,8.20
2023-03-26T07:15:56.110Z,8.20
2023-03-26T07:18:28.341Z,8.20
2023-03-26T07:21:01.423Z,8.20
2023-03-26T07:23:34.680Z,8.20
2023-03-26T07:26:30.873Z,8.20
2023-03-26T07:29:25.537Z,8.20
2023-03-26T07:32:38.119Z,8.20
2023-03-26T07:35:52.748Z,8.20
2023-03-26T07:38:51.332Z,8.20
2023-03-26T07:41:48.899Z,8.20
2023-03-26T07:45:01.989Z,8.20
2023-03-26T07:47:49.682Z,8.10
2023-03-26T07:50:25.554Z,8.10
2023-03-26T07:52:59.670Z,8.10
2023-03-26T07:55:33.095Z,8.10
2023-03-26T07:59:01.555Z,8.10
2023-03-26T08:02:23.115Z,8.00
2023-03-26T08:05:21.561Z,8.00
2023-03-26T08:08:13.918Z,7.90
2023-03-26T08:11:12.186Z,7.90
2023-03-26T08:14:27.890Z,7.90
2023-03-26T08:18:01.311Z,7.90
2023-03-26T08:21:26.714Z,7.80
2023-03-26T08:24:36.794Z,7.80
2023-03-26T08:28:00.754Z,7.80
2023-03-26T08:30:55.270Z,7.80
2023-03-26T08:33:29.059Z,7.80
2023-03-26T08:36:02.524Z,7.80
2023-03-26T08:38:35.495Z,7.70
2023-03-26T08:41:11.495Z,7.70
2023-03-26T08:44:13.963Z,7.70
2023-03-26T08:47:17.773Z,7.70
2023-03-26T08:50:21.315Z,7.60
2023-03-26T08:53:59.796Z,7.60
2023-03-26T08:56:56.449Z,7.70
2023-03-26T09:00:02.457Z,7.70
2023-03-26T09:03:07.744Z,7.70
2023-03-26T09:06:25.394Z,7.80
2023-03-26T09:09:45.624Z,7.80
2023-03-26T09:13:14.155Z,7.90
2023-03-26T09:16:27.871Z,8.00
2023-03-26T09:19:23.019Z,8.10
2023-03-26T09:22:33.905Z,8.10
2023-03-26T09:25:49.235Z,8.10
2023-03-26T09:28:40.936Z,8.30
2023-03-26T09:32:02.941Z,8.60
2023-03-26T09:35:16.267Z,8.90
2023-03-26T09:38:34.519Z,9.10
2023-03-26T09:41:42.970Z,9.30
2023-03-26T09:45:00.285Z,9.40
2023-03-26T09:48:01.382Z,9.70
2023-03-26T09:51:03.167Z,9.90
2023-03-26T09:54:00.744Z,10.10
2023-03-26T09:57:11.377Z,10.20
2023-03-26T10:00:22.783Z,10.30
2023-03-26T10:03:30.726Z,10.30
2023-03-26T10:06:42.870Z,10.40
2023-03-26T10:09:52.224Z,10.50
2023-03-26T10:12:38.527Z,10.60
2023-03-26T10:15:25.083Z,10.80
2023-03-26T10:18:39.340Z,10.90
2023-03-26T10:22:12.201Z,11.10
2023-03-26T10:25:29.645Z,11.30
2023-03-26T10:29:05.396Z,11.50
2023-03-26T10:32:15.809Z,11.70
2023-03-26T10:35:37.894Z,11.90
2023-03-26T10:38:42.660Z,12.00
2023-03-26T10:41:57.519Z,11.90
2023-03-26T10:45:11.285Z,11.70
2023-03-26T10:48:30.750Z,11.70
2023-03-26T10:51:51.562Z,11.70
2023-03-26T10:55:16.556Z,11.70
2023-03-26T10:58:01.718Z,11.80
2023-03-26T11:00:50.659Z,11.70
2023-03-26T11:03:34.121Z,11.70
2023-03-26T11:06:41.786Z,11.80
2023-03-26T11:10:12.253Z,12.00
2023-03-26T11:13:36.346Z,12.40
2023-03-26T11:16:38.670Z,12.70
2023-03-26T11:19:43.036Z,13.00
2023-03-26T11:23:12.758Z,13.20
2023-03-26T11:26:23.426Z,13.20
2023-03-26T11:29:34.585Z,13.40
2023-03-26T11:33:15.571Z,13.70
2023-03-26T11:36:07.222Z,13.90
2023-03-26T11:38:51.120Z,13.90
2023-03-26T11:41:39.618Z,13.70
2023-03-26T11:44:42.491Z,13.50
2023-03-26T11:47:38.378Z,13.30
2023-03-26T11:50:31.116Z,13.20
2023-03-26T11:53:16.466Z,13.10
2023-03-26T11:56:08.485Z,13.00
2023-03-26T11:59:05.722Z,12.90
2023-03-26T12:01:57.190Z,12.70
2023-03-26T12:05:03.137Z,12.60
2023-03-26T12:07:59.969Z,12.40
2023-03-26T12:10:43.122Z,12.10
2023-03-26T12:13:35.813Z,11.90
2023-03-26T12:16:23.387Z,11.60
2023-03-26T12:19:05.586Z,11.40
2023-03-26T12:21:54.886Z,11.50
2023-03-26T12:24:28.647Z,11.90
2023-03-26T12:27:28.421Z,12.30
2023-03-26T12:30:34.454Z,12.70
2023-03-26T12:33:16.609Z,12.90
2023-03-26T12:36:01.092Z,13.10
2023-03-26T12:39:16.243Z,13.30
2023-03-26T12:44:42.719Z,13.30
2023-03-26T12:45:00.264Z,13.00
2023-03-26T12:47:59.726Z,12.90
2023-03-26T12:51:05.611Z,12.80
2023-03-26T12:54:36.258Z,13.00
2023-03-26T12:57:26.638Z,13.30
2023-03-26T13:00:21.467Z,13.60
2023-03-26T13:03:38.955Z,13.90
2023-03-26T13:06:48.342Z,14.20
2023-03-26T13:10:15.758Z,14.40
2023-03-26T13:13:30.127Z,14.80
2023-03-26T13:16:42.884Z,14.80
2023-03-26T13:19:50.185Z,14.70
2023-03-26T13:22:50.289Z,14.50
2023-03-26T13:25:49.176Z,14.30
2023-03-26T13:28:58.314Z,14.10
2023-03-26T13:32:06.004Z,13.90
2023-03-26T13:35:27.725Z,13.70
2023-03-26T13:38:59.005Z,13.80
2023-03-26T13:42:00.497Z,14.00
2023-03-26T13:45:04.846Z,14.20
2023-03-26T13:47:59.868Z,14.20
2023-03-26T13:50:43.327Z,14.10
2023-03-26T13:53:44.884Z,13.90
2023-03-26T13:56:34.986Z,13.60
2023-03-26T13:59:27.588Z,13.50
2023-03-26T14:02:11.645Z,13.50
2023-03-26T14:05:12.589Z,13.60
2023-03-26T14:07:57.946Z,13.60
2023-03-26T14:10:56.104Z,13.50
2023-03-26T14:14:01.482Z,13.50
2023-03-26T14:16:48.782Z,13.60
2023-03-26T14:19:44.938Z,13.70
2023-03-26T14:23:09.212Z,13.60
2023-03-26T14:26:14.876Z,13.50
2023-03-26T14:29:13.063Z,13.40
2023-03-26T14:32:11.359Z,13.20
2023-03-26T14:35:12.483Z,13.00
2023-03-26T14:38:33.071Z,12.60
2023-03-26T14:41:53.775Z,12.00
2023-03-26T14:44:54.563Z,11.60
2023-03-26T14:47:59.821Z,11.10
2023-03-26T14:51:31.927Z,10.60
2023-03-26T14:54:23.049Z,10.40
2023-03-26T14:57:10.043Z,10.20
2023-03-26T15:00:50.399Z,10.10
2023-03-26T15:04:11.134Z,10.00
2023-03-26T15:07:34.311Z,10.00
2023-03-26T15:10:47.052Z,9.90
2023-03-26T15:14:17.127Z,9.90
2023-03-26T15:17:31.512Z,9.80
2023-03-26T15:20:52.565Z,9.60
2023-03-26T15:23:53.594Z,9.40
2023-03-26T15:27:04.306Z,9.20
2023-03-26T15:30:05.953Z,9.10
2023-03-26T15:33:18.295Z,9.00
2023-03-26T15:36:26.744Z,8.90
2023-03-26T15:40:00.068Z,8.80
2023-03-26T15:43:14.355Z,8.70
2023-03-26T15:46:11.237Z,8.60
2023-03-26T15:49:20.446Z,8.60
2023-03-26T15:52:49.110Z,8.60
2023-03-26T15:55:55.756Z,8.50
2023-03-26T15:59:00.127Z,8.40
2023-03-26T16:02:27.980Z,8.40
2023-03-26T16:05:34.011Z,8.30
2023-03-26T16:08:41.838Z,8.30
2023-03-26T16:11:56.865Z,8.30
2023-03-26T16:14:43.256Z,8.30
2023-03-26T16:17:23.379Z,8.20
2023-03-26T16:19:59.832Z,8.20
2023-03-26T16:23:05.157Z,8.20
2023-03-26T16:25:59.406Z,8.20
2023-03-26T16:28:55.505Z,8.20
2023-03-26T16:32:06.894Z,8.20
2023-03-26T16:35:05.543Z,8.20
2023-03-26T16:38:15.485Z,8.20
2023-03-26T16:41:12.734Z,8.20
2023-03-26T16:44:28.684Z,8.20
2023-03-26T16:47:35.810Z,8.10
2023-03-26T16:50:44.343Z,8.10
2023-03-26T16:53:44.543Z,8.10
2023-03-26T16:56:42.947Z,8.10
2023-03-26T17:00:05.080Z,8.00
2023-03-26T17:03:19.013Z,8.00
2023-03-26T17:06:33.993Z,7.90
2023-03-26T17:09:44.215Z,7.90
2023-03-26T17:13:03.866Z,7.90
2023-03-26T17:16:06.347Z,7.90
2023-03-26T17:19:07.505Z,7.90
2023-03-26T17:22:06.605Z,7.90
2023-03-26T17:25:22.638Z,7.80
2023-03-26T17:36:41.885Z,7.80
2023-03-26T17:39:21.996Z,7.80
2023-03-26T17:42:19.007Z,7.80
2023-03-26T17:45:08.579Z,7.80
2023-03-26T17:48:20.430Z,7.70
2023-03-26T17:51:18.938Z,7.70
2023-03-26T17:54:54.035Z,7.70
2023-03-26T17:57:40.719Z,7.70
2023-03-26T18:00:20.870Z,7.70
2023-03-26T18:03:31.564Z,7.70
2023-03-26T18:06:40.647Z,7.70
2023-03-26T18:09:42.296Z,7.70
2023-03-26T18:13:10.276Z,7.60
2023-03-26T18:16:17.312Z,7.60
2023-03-26T18:23:13.513Z,7.60
2023-03-26T18:26:22.228Z,7.60
2023-03-26T18:29:32.675Z,7.60
2023-03-26T18:32:17.822Z,7.50
2023-03-26T18:35:01.780Z,7.50
2023-03-26T18:38:36.287Z,7.40
2023-03-26T18:41:53.340Z,7.50
2023-03-26T18:44:42.686Z,7.50
2023-03-26T18:47:23.164Z,7.40
2023-03-26T18:50:42.516Z,7.40
2023-03-26T18:54:03.385Z,7.50
2023-03-26T18:57:22.175Z,7.30
2023-03-26T19:00:28.609Z,7.30
2023-03-26T19:03:08.660Z,7.30
2023-03-26T19:05:49.619Z,7.20
2023-03-26T19:08:33.377Z,7.20
2023-03-26T19:11:16.272Z,7.10
2023-03-26T19:14:18.490Z,7.10
2023-03-26T19:17:15.526Z,7.10
2023-03-26T19:19:52.831Z,7.10
2023-03-26T19:22:31.115Z,7.20
2023-03-26T19:25:17.642Z,7.20
2023-03-26T19:31:00.517Z,7.20
2023-03-26T19:34:02.827Z,7.10
2023-03-26T19:37:03.704Z,7.10
2023-03-26T19:40:07.120Z,7.10
2023-03-26T19:42:52.127Z,7.10
2023-03-26T19:45:28.152Z,7.10
2023-03-26T19:48:15.489Z,7.00
2023-03-26T19:51:02.080Z,7.00
2023-03-26T19:53:44.410Z,6.90
2023-03-26T19:56:36.701Z,6.90
2023-03-26T19:59:11.374Z,6.80
